Time;durP1;ratioP1;P1;durP2;ratioP2;P2;SDS_P1;SDS_P2;PMS_P1;PMS_P2;Temp;Humidity;BMP_temperature;BMP_pressure;BME280_temperature;BME280_humidity;BME280_pressure;Samples;Min_cycle;Max_cycle;Signal;HPM_P1;HPM_P2
2020/12/08 00:00:35;;;;;;;22.60;12.00;;;4.50;99.80;;;;;;4963239;28;20234;-87
2020/12/08 00:03:02;;;;;;;22.95;12.80;;;4.50;99.80;;;;;;4983563;28;20749;-88
2020/12/08 00:05:29;;;;;;;20.08;11.25;;;4.50;99.80;;;;;;4996932;28;20322;-87
2020/12/08 00:07:57;;;;;;;21.98;11.52;;;4.50;99.80;;;;;;4990625;28;20710;-87
2020/12/08 00:10:24;;;;;;;15.55;10.27;;;4.50;99.80;;;;;;4989974;28;21028;-87
2020/12/08 00:12:51;;;;;;;22.27;11.65;;;4.40;99.80;;;;;;4985516;28;20247;-88
2020/12/08 00:15:19;;;;;;;19.90;10.80;;;4.40;99.80;;;;;;4991676;28;20230;-87
2020/12/08 00:17:47;;;;;;;19.70;11.32;;;4.40;99.80;;;;;;4977158;28;20242;-87
2020/12/08 00:20:15;;;;;;;16.63;10.90;;;4.40;99.80;;;;;;4992582;28;20321;-88
2020/12/08 00:22:42;;;;;;;19.23;9.98;;;4.40;99.80;;;;;;4979487;28;20262;-88
2020/12/08 00:25:11;;;;;;;16.42;10.15;;;4.30;99.80;;;;;;4973455;28;20242;-88
2020/12/08 00:27:39;;;;;;;19.30;10.55;;;4.30;99.80;;;;;;4979337;28;20231;-88
2020/12/08 00:30:09;;;;;;;20.05;10.63;;;4.30;99.80;;;;;;4976174;28;20274;-88
2020/12/08 00:32:38;;;;;;;17.23;10.13;;;4.30;99.80;;;;;;4972435;28;20589;-88
2020/12/08 00:35:06;;;;;;;22.60;11.65;;;4.20;99.80;;;;;;5002288;28;20243;-89
2020/12/08 00:37:33;;;;;;;16.45;10.07;;;4.20;99.80;;;;;;4998224;28;20235;-89
2020/12/08 00:40:00;;;;;;;16.63;10.18;;;4.10;99.80;;;;;;4995283;28;20251;-87
2020/12/08 00:42:28;;;;;;;16.35;10.27;;;4.10;99.80;;;;;;4987417;28;20223;-87
2020/12/08 00:44:55;;;;;;;18.35;10.57;;;4.10;99.80;;;;;;4978032;28;20311;-89
2020/12/08 00:47:22;;;;;;;16.48;9.27;;;4.10;99.80;;;;;;4976136;28;20286;-89
2020/12/08 00:49:50;;;;;;;15.35;9.65;;;4.00;99.80;;;;;;5004852;28;20245;-89
2020/12/08 00:52:17;;;;;;;18.40;10.00;;;4.00;99.80;;;;;;4987812;28;20242;-89
2020/12/08 00:54:44;;;;;;;18.00;10.20;;;4.00;99.80;;;;;;4981132;28;20326;-89
2020/12/08 00:57:11;;;;;;;21.55;11.70;;;4.00;99.80;;;;;;4972199;28;20308;-87
2020/12/08 00:59:39;;;;;;;16.45;10.48;;;4.00;99.80;;;;;;4972118;28;20235;-89
2020/12/08 01:02:06;;;;;;;18.85;10.32;;;3.90;99.80;;;;;;4955144;28;20233;-87
2020/12/08 01:04:33;;;;;;;15.55;9.55;;;3.90;99.80;;;;;;5008933;28;20277;-87
2020/12/08 01:07:00;;;;;;;16.25;9.20;;;3.80;99.80;;;;;;5000285;28;20591;-89
2020/12/08 01:09:27;;;;;;;18.00;10.10;;;3.60;99.80;;;;;;4998800;28;20226;-87
2020/12/08 01:11:54;;;;;;;20.00;10.00;;;3.40;99.80;;;;;;4991345;28;20237;-88
2020/12/08 01:14:21;;;;;;;19.55;9.85;;;3.20;99.80;;;;;;4994575;28;20226;-89
2020/12/08 01:16:49;;;;;;;19.30;10.27;;;3.00;99.80;;;;;;4992651;28;20227;-89
2020/12/08 01:19:16;;;;;;;16.85;9.55;;;2.90;99.80;;;;;;4999029;28;20223;-88
2020/12/08 01:21:43;;;;;;;15.63;9.02;;;2.80;99.80;;;;;;5000271;28;20238;-88
2020/12/08 01:24:10;;;;;;;17.80;8.73;;;2.70;99.80;;;;;;4987936;28;20654;-89
2020/12/08 01:26:37;;;;;;;15.32;8.32;;;2.60;99.80;;;;;;4962707;28;20222;-88
2020/12/08 01:29:04;;;;;;;21.42;9.60;;;2.60;99.80;;;;;;4967055;28;20258;-89
2020/12/08 01:31:32;;;;;;;19.15;9.50;;;2.50;99.80;;;;;;4986834;28;20720;-88
2020/12/08 01:33:59;;;;;;;19.38;10.07;;;2.50;99.80;;;;;;4981667;28;20317;-89
2020/12/08 01:36:27;;;;;;;17.42;9.55;;;2.50;99.80;;;;;;4988109;28;20274;-87
2020/12/08 01:38:54;;;;;;;16.25;8.48;;;2.50;99.80;;;;;;4979457;28;20234;-86
2020/12/08 01:41:21;;;;;;;16.67;9.77;;;2.50;99.80;;;;;;4966360;28;20795;-89
2020/12/08 01:43:49;;;;;;;15.18;9.00;;;2.50;99.80;;;;;;4982263;28;20222;-86
2020/12/08 01:46:18;;;;;;;17.98;8.88;;;2.60;99.80;;;;;;4977889;28;20226;-89
2020/12/08 01:48:47;;;;;;;16.33;9.30;;;2.70;99.80;;;;;;4995366;28;20735;-87
2020/12/08 01:51:17;;;;;;;15.90;9.23;;;2.80;99.80;;;;;;4999988;28;20229;-86
2020/12/08 01:53:45;;;;;;;17.70;10.25;;;2.90;99.80;;;;;;4999543;28;20280;-88
2020/12/08 01:56:13;;;;;;;15.48;8.52;;;3.00;99.80;;;;;;4983176;28;20227;-88
2020/12/08 01:58:40;;;;;;;16.20;8.95;;;3.00;99.80;;;;;;4978469;28;20589;-88
2020/12/08 02:01:10;;;;;;;17.65;10.10;;;3.00;99.80;;;;;;4961880;28;20226;-89
2020/12/08 02:03:38;;;;;;;20.75;10.68;;;3.00;99.80;;;;;;4981766;28;20233;-87
2020/12/08 02:06:05;;;;;;;20.20;9.85;;;2.90;99.80;;;;;;4984546;28;20709;-87
2020/12/08 02:08:35;;;;;;;14.30;9.40;;;2.90;99.80;;;;;;4976058;28;20341;-87
2020/12/08 02:11:02;;;;;;;15.98;9.07;;;2.90;99.80;;;;;;4970861;28;20235;-87
2020/12/08 02:13:30;;;;;;;15.25;9.15;;;2.90;99.80;;;;;;4972507;28;20244;-87
2020/12/08 02:15:58;;;;;;;18.67;10.45;;;2.90;99.80;;;;;;4979935;28;20304;-87
2020/12/08 02:18:26;;;;;;;17.85;10.88;;;2.90;99.80;;;;;;5000999;28;20848;-87
2020/12/08 02:20:55;;;;;;;14.30;8.70;;;2.90;99.80;;;;;;4994691;28;20245;-88
2020/12/08 02:23:22;;;;;;;14.02;8.93;;;3.00;99.80;;;;;;5002686;28;20228;-90
2020/12/08 02:25:56;;;;;;;17.33;9.73;;;3.00;99.80;;;;;;4998804;28;20723;-88
2020/12/08 02:28:24;;;;;;;13.13;8.68;;;2.90;99.80;;;;;;4980899;28;20293;-87
2020/12/08 02:30:51;;;;;;;21.30;9.20;;;2.80;99.80;;;;;;4973121;28;20236;-87
2020/12/08 02:33:21;;;;;;;17.33;9.35;;;2.80;99.80;;;;;;4995559;28;20233;-87
2020/12/08 02:35:48;;;;;;;16.17;9.50;;;2.60;99.80;;;;;;5005879;28;20222;-88
2020/12/08 02:38:16;;;;;;;23.52;10.75;;;2.60;99.80;;;;;;4999597;28;20230;-87
2020/12/08 02:40:45;;;;;;;17.02;9.07;;;2.50;99.80;;;;;;4984669;28;20227;-87
2020/12/08 02:43:14;;;;;;;15.35;9.10;;;2.50;99.80;;;;;;4970631;28;20630;-87
2020/12/08 02:45:41;;;;;;;14.88;8.70;;;2.50;99.80;;;;;;4977560;28;20373;-88
2020/12/08 02:48:08;;;;;;;19.13;9.82;;;2.50;99.80;;;;;;4997518;28;20237;-87
2020/12/08 02:50:36;;;;;;;15.95;9.00;;;2.50;99.80;;;;;;4994647;28;20241;-87
2020/12/08 02:53:03;;;;;;;17.77;9.52;;;2.50;99.80;;;;;;5002394;28;20232;-87
2020/12/08 02:55:31;;;;;;;19.55;11.02;;;2.50;99.80;;;;;;4999626;28;20317;-87
2020/12/08 02:57:58;;;;;;;18.33;9.85;;;2.60;99.80;;;;;;4992594;28;20226;-87
2020/12/08 03:00:26;;;;;;;17.83;10.75;;;2.60;99.80;;;;;;4983661;28;20720;-87
2020/12/08 03:02:53;;;;;;;16.33;9.25;;;2.70;99.80;;;;;;5016045;28;20564;-87
2020/12/08 03:05:20;;;;;;;19.80;10.40;;;2.80;99.80;;;;;;5002902;28;20249;-87
2020/12/08 03:07:47;;;;;;;18.17;10.40;;;2.80;99.80;;;;;;5006050;28;20219;-88
2020/12/08 03:10:14;;;;;;;18.92;10.07;;;2.90;99.80;;;;;;5002471;28;20226;-87
2020/12/08 03:12:45;;;;;;;24.33;11.10;;;2.90;99.80;;;;;;5010111;28;20569;-87
2020/12/08 03:15:13;;;;;;;19.23;10.70;;;2.90;99.80;;;;;;4980337;28;20285;-87
2020/12/08 03:17:40;;;;;;;18.35;11.20;;;3.00;99.80;;;;;;4980420;28;20635;-87
2020/12/08 03:20:07;;;;;;;21.20;12.00;;;3.00;99.80;;;;;;4994471;28;20230;-87
2020/12/08 03:22:35;;;;;;;19.17;10.45;;;3.00;99.80;;;;;;4996695;28;20230;-87
2020/12/08 03:25:02;;;;;;;19.70;9.73;;;3.00;99.80;;;;;;5001140;28;20305;-87
2020/12/08 03:27:29;;;;;;;15.35;8.88;;;3.00;99.80;;;;;;4986661;28;20226;-87
2020/12/08 03:29:57;;;;;;;17.73;10.10;;;3.00;99.80;;;;;;4966017;28;20872;-88
2020/12/08 03:32:24;;;;;;;18.98;10.30;;;3.00;99.80;;;;;;4982759;28;20321;-87
2020/12/08 03:34:51;;;;;;;18.42;9.48;;;2.90;99.80;;;;;;5007192;28;20227;-87
2020/12/08 03:37:19;;;;;;;14.73;9.27;;;2.90;99.80;;;;;;5003655;28;20237;-88
2020/12/08 03:39:46;;;;;;;21.90;11.38;;;2.90;99.80;;;;;;5007625;28;20238;-87
2020/12/08 03:42:13;;;;;;;19.25;10.90;;;2.90;99.80;;;;;;4997020;28;20241;-87
2020/12/08 03:44:40;;;;;;;22.50;10.63;;;2.80;99.80;;;;;;4994808;28;20230;-87
2020/12/08 03:47:08;;;;;;;19.70;10.63;;;2.80;99.80;;;;;;5005300;28;20270;-86
2020/12/08 03:49:35;;;;;;;19.27;9.80;;;2.90;99.80;;;;;;4999594;28;20234;-87
2020/12/08 03:52:02;;;;;;;21.83;10.60;;;2.80;99.80;;;;;;4999298;28;20280;-87
2020/12/08 03:54:29;;;;;;;16.50;10.20;;;2.80;99.80;;;;;;5004516;28;20228;-86
2020/12/08 03:56:56;;;;;;;20.50;10.32;;;2.80;99.80;;;;;;5003227;28;20667;-86
2020/12/08 03:59:24;;;;;;;16.88;9.30;;;2.80;99.80;;;;;;4999394;28;20233;-86
2020/12/08 04:01:52;;;;;;;17.80;10.60;;;2.80;99.80;;;;;;5000153;28;20594;-87
2020/12/08 04:04:20;;;;;;;16.05;10.63;;;2.80;99.80;;;;;;4991210;28;20240;-87
2020/12/08 04:06:48;;;;;;;17.02;10.23;;;2.90;99.80;;;;;;5002836;28;20228;-87
2020/12/08 04:09:15;;;;;;;21.00;11.07;;;2.90;99.80;;;;;;5005447;28;20236;-87
2020/12/08 04:11:42;;;;;;;17.48;10.32;;;2.80;99.80;;;;;;5000325;28;20223;-89
2020/12/08 04:14:11;;;;;;;19.67;10.13;;;2.90;99.80;;;;;;4998364;28;20222;-87
2020/12/08 04:16:38;;;;;;;25.05;12.40;;;2.90;99.80;;;;;;5002124;28;20238;-86
2020/12/08 04:19:06;;;;;;;19.83;10.93;;;2.90;99.80;;;;;;4986672;28;20701;-87
2020/12/08 04:21:34;;;;;;;19.95;10.68;;;2.90;99.80;;;;;;4974947;28;20229;-87
2020/12/08 04:24:01;;;;;;;19.08;10.63;;;2.90;99.80;;;;;;4993267;28;20312;-87
2020/12/08 04:26:29;;;;;;;18.33;10.57;;;2.90;99.80;;;;;;4988479;28;20225;-87
2020/12/08 04:28:56;;;;;;;18.83;10.68;;;3.00;99.80;;;;;;4973459;28;20278;-87
2020/12/08 04:31:24;;;;;;;17.98;8.75;;;3.00;99.80;;;;;;4981459;28;20241;-87
2020/12/08 04:33:52;;;;;;;18.70;10.55;;;3.00;99.80;;;;;;5002044;28;20233;-87
2020/12/08 04:36:20;;;;;;;19.55;10.98;;;2.90;99.80;;;;;;5006883;28;20716;-87
2020/12/08 04:38:48;;;;;;;20.20;11.55;;;3.00;99.80;;;;;;5002978;28;20224;-87
2020/12/08 04:41:20;;;;;;;21.73;11.32;;;3.00;99.80;;;;;;4987707;28;20226;-88
2020/12/08 04:43:47;;;;;;;20.70;11.40;;;3.00;99.80;;;;;;4999530;28;20322;-87
2020/12/08 04:46:17;;;;;;;21.33;11.50;;;3.00;99.80;;;;;;4996270;28;20226;-87
2020/12/08 04:48:45;;;;;;;19.70;11.23;;;3.00;99.80;;;;;;5002728;28;20237;-87
2020/12/08 04:51:13;;;;;;;21.08;12.02;;;3.00;99.80;;;;;;4986701;28;20231;-88
2020/12/08 04:53:40;;;;;;;22.70;11.13;;;3.00;99.80;;;;;;4971764;28;20239;-87
2020/12/08 04:56:08;;;;;;;23.10;12.13;;;3.00;99.80;;;;;;4988545;28;20226;-87
2020/12/08 04:58:35;;;;;;;25.40;12.13;;;3.10;99.80;;;;;;4963763;28;20239;-87
2020/12/08 05:01:02;;;;;;;21.85;12.02;;;3.10;99.80;;;;;;4974591;28;20317;-87
2020/12/08 05:03:30;;;;;;;20.25;10.82;;;3.10;99.80;;;;;;4991799;28;20688;-87
2020/12/08 05:05:59;;;;;;;23.23;12.23;;;3.10;99.80;;;;;;5004412;28;20219;-87
2020/12/08 05:08:26;;;;;;;26.17;12.13;;;3.10;99.80;;;;;;4993172;28;20607;-87
2020/12/08 05:10:53;;;;;;;18.90;10.73;;;3.10;99.80;;;;;;4999494;28;20230;-87
2020/12/08 05:13:25;;;;;;;23.08;12.68;;;3.10;99.80;;;;;;5002782;28;20317;-87
2020/12/08 05:15:59;;;;;;;22.50;12.57;;;3.10;99.80;;;;;;4997177;28;20226;-87
2020/12/08 05:18:26;;;;;;;21.38;11.65;;;3.10;99.80;;;;;;4998524;28;20237;-87
2020/12/08 05:20:53;;;;;;;20.25;11.63;;;3.10;99.80;;;;;;4987012;28;20244;-87
2020/12/08 05:23:22;;;;;;;21.75;11.70;;;3.10;99.80;;;;;;4964288;28;20731;-87
2020/12/08 05:25:49;;;;;;;20.35;11.45;;;3.10;99.80;;;;;;4951013;28;20237;-87
2020/12/08 05:28:19;;;;;;;23.85;11.95;;;3.10;99.80;;;;;;4976562;28;20226;-86
2020/12/08 05:30:48;;;;;;;21.15;10.85;;;3.10;99.80;;;;;;4984262;28;20226;-86
2020/12/08 05:33:17;;;;;;;22.35;11.52;;;3.10;99.80;;;;;;4970781;28;20237;-87
2020/12/08 05:35:47;;;;;;;20.60;10.85;;;3.10;99.80;;;;;;4998619;28;20230;-87
2020/12/08 05:38:16;;;;;;;25.55;12.68;;;3.10;99.80;;;;;;5001982;28;20227;-87
2020/12/08 05:40:51;;;;;;;22.90;12.73;;;3.10;99.80;;;;;;5001894;28;20223;-87
2020/12/08 05:43:21;;;;;;;23.67;12.27;;;3.10;99.80;;;;;;5002522;28;20218;-87
2020/12/08 05:45:49;;;;;;;21.48;11.88;;;3.10;99.80;;;;;;5000299;28;20230;-87
2020/12/08 05:48:22;;;;;;;23.35;12.02;;;3.10;99.80;;;;;;5004370;28;20222;-87
2020/12/08 05:50:49;;;;;;;25.55;11.50;;;3.10;99.80;;;;;;4998746;28;20241;-87
2020/12/08 05:53:17;;;;;;;21.80;12.43;;;3.10;99.80;;;;;;4980344;28;20308;-87
2020/12/08 05:55:44;;;;;;;20.80;12.02;;;3.10;99.80;;;;;;4986153;28;20281;-87
2020/12/08 05:58:14;;;;;;;23.42;11.98;;;3.10;99.80;;;;;;4989097;28;20236;-88
2020/12/08 06:00:45;;;;;;;21.63;11.52;;;3.10;99.80;;;;;;4998134;28;20252;-88
2020/12/08 06:03:16;;;;;;;21.25;11.65;;;3.20;99.80;;;;;;4991947;28;20219;-88
2020/12/08 06:05:46;;;;;;;19.80;10.55;;;3.20;99.80;;;;;;4991984;28;20313;-88
2020/12/08 06:08:19;;;;;;;20.30;10.90;;;3.20;99.80;;;;;;4986653;28;20229;-88
2020/12/08 06:10:48;;;;;;;16.35;9.10;;;3.20;99.80;;;;;;4986896;28;20238;-91
2020/12/08 06:13:25;;;;;;;18.27;9.90;;;3.20;99.80;;;;;;4999797;28;20226;-88
2020/12/08 06:15:53;;;;;;;16.42;9.27;;;3.10;99.80;;;;;;4996142;28;20264;-88
2020/12/08 06:18:29;;;;;;;20.40;9.93;;;3.10;99.80;;;;;;5015377;28;20237;-88
2020/12/08 06:20:58;;;;;;;20.40;10.52;;;3.10;99.80;;;;;;5014180;28;20230;-88
2020/12/08 06:23:25;;;;;;;19.35;11.63;;;3.10;99.80;;;;;;5030497;28;20222;-88
2020/12/08 06:25:58;;;;;;;22.02;12.25;;;3.20;99.80;;;;;;5024648;28;20309;-88
2020/12/08 06:28:25;;;;;;;21.65;11.50;;;3.10;99.80;;;;;;5030719;28;20229;-88
2020/12/08 06:31:01;;;;;;;22.75;11.30;;;3.10;99.80;;;;;;5015292;28;20234;-88
2020/12/08 06:33:29;;;;;;;18.25;10.85;;;3.10;99.80;;;;;;5010247;28;20222;-87
2020/12/08 06:36:00;;;;;;;16.92;10.48;;;3.10;99.80;;;;;;4986225;28;20312;-87
2020/12/08 06:38:28;;;;;;;19.60;10.43;;;3.10;99.80;;;;;;4999627;28;20226;-88
2020/12/08 06:40:56;;;;;;;19.92;10.40;;;3.10;99.80;;;;;;4988955;28;20740;-87
2020/12/08 06:43:23;;;;;;;19.90;10.10;;;3.00;99.80;;;;;;4983521;28;20229;-87
2020/12/08 06:45:50;;;;;;;15.38;9.07;;;3.10;99.80;;;;;;4989446;28;20222;-88
2020/12/08 06:48:18;;;;;;;15.95;9.20;;;3.10;99.80;;;;;;4990939;28;20230;-88
2020/12/08 06:50:47;;;;;;;16.40;9.40;;;3.10;99.80;;;;;;5009449;28;20236;-87
2020/12/08 06:53:15;;;;;;;18.35;9.75;;;3.10;99.80;;;;;;5009362;28;20336;-87
2020/12/08 06:55:44;;;;;;;18.00;9.32;;;3.20;99.80;;;;;;5009180;28;20234;-87
2020/12/08 06:58:11;;;;;;;20.95;10.38;;;3.20;99.80;;;;;;5008543;28;20229;-86
2020/12/08 07:00:38;;;;;;;20.40;9.85;;;3.20;99.80;;;;;;5006806;28;20234;-86
2020/12/08 07:03:08;;;;;;;20.60;12.00;;;3.10;99.80;;;;;;5008963;28;20229;-87
2020/12/08 07:05:36;;;;;;;24.63;11.20;;;3.10;99.80;;;;;;5009515;28;20237;-87
2020/12/08 07:08:05;;;;;;;27.27;13.18;;;3.00;99.80;;;;;;4987272;28;20226;-87
2020/12/08 07:10:37;;;;;;;22.25;12.45;;;3.00;99.80;;;;;;4991894;28;20222;-86
2020/12/08 07:13:12;;;;;;;20.23;10.77;;;2.90;99.80;;;;;;4985244;28;20295;-87
2020/12/08 07:15:40;;;;;;;18.92;11.35;;;2.90;99.80;;;;;;4961886;28;20230;-86
2020/12/08 07:18:08;;;;;;;18.80;10.82;;;2.90;99.80;;;;;;4984427;28;20234;-87
2020/12/08 07:20:38;;;;;;;18.50;9.85;;;3.00;99.80;;;;;;4996369;28;20238;-86
2020/12/08 07:23:08;;;;;;;16.17;9.18;;;3.00;99.80;;;;;;5009125;28;20238;-86
2020/12/08 07:25:35;;;;;;;19.90;9.88;;;3.10;99.80;;;;;;5003355;28;20741;-87
2020/12/08 07:28:07;;;;;;;17.15;10.18;;;3.10;99.80;;;;;;4999758;28;20222;-88
2020/12/08 07:30:34;;;;;;;18.45;11.32;;;3.20;99.80;;;;;;4996471;28;20228;-87
2020/12/08 07:33:11;;;;;;;20.38;10.90;;;3.20;99.80;;;;;;4996023;28;20222;-87
2020/12/08 07:35:43;;;;;;;18.45;10.60;;;3.20;99.80;;;;;;4988744;28;20309;-87
2020/12/08 07:38:11;;;;;;;19.38;9.85;;;3.20;99.80;;;;;;4980436;28;20315;-87
2020/12/08 07:40:40;;;;;;;21.70;10.82;;;3.20;99.80;;;;;;4980416;28;21273;-87
2020/12/08 07:43:07;;;;;;;18.23;9.38;;;3.30;99.80;;;;;;4977615;28;20233;-87
2020/12/08 07:45:42;;;;;;;22.52;12.98;;;3.40;99.80;;;;;;4998353;28;20230;-87
2020/12/08 07:48:18;;;;;;;20.98;12.10;;;3.40;99.80;;;;;;4991400;28;21044;-87
2020/12/08 07:50:45;;;;;;;20.45;11.57;;;3.40;99.80;;;;;;4995267;28;20897;-88
2020/12/08 07:53:15;;;;;;;21.20;11.60;;;3.50;99.80;;;;;;4999066;28;20236;-87
2020/12/08 07:55:44;;;;;;;24.90;12.25;;;3.50;99.80;;;;;;4992125;28;20604;-87
2020/12/08 07:58:12;;;;;;;22.70;12.13;;;3.50;99.80;;;;;;5000343;28;20231;-87
2020/12/08 08:00:39;;;;;;;18.15;11.70;;;3.50;99.80;;;;;;4995141;28;20891;-87
2020/12/08 08:03:08;;;;;;;22.58;11.93;;;3.50;99.80;;;;;;5003911;28;20242;-87
2020/12/08 08:05:35;;;;;;;17.63;10.65;;;3.60;99.80;;;;;;4996415;28;20231;-87
2020/12/08 08:08:02;;;;;;;17.67;10.27;;;3.60;99.80;;;;;;4996644;28;20545;-88
2020/12/08 08:10:30;;;;;;;22.95;11.23;;;3.70;99.80;;;;;;4975216;28;20590;-88
2020/12/08 08:12:57;;;;;;;20.83;12.10;;;3.70;99.80;;;;;;4991191;28;20260;-88
2020/12/08 08:15:24;;;;;;;21.88;10.57;;;3.70;99.80;;;;;;4977873;28;20274;-87
2020/12/08 08:17:51;;;;;;;19.30;9.80;;;3.80;99.80;;;;;;4991671;28;20230;-87
2020/12/08 08:20:19;;;;;;;22.65;13.32;;;3.90;99.80;;;;;;4981403;28;20226;-87
2020/12/08 08:22:46;;;;;;;20.90;11.95;;;3.90;99.80;;;;;;4980284;28;20326;-88
2020/12/08 08:25:13;;;;;;;17.45;10.70;;;4.00;99.80;;;;;;4978049;28;20226;-87
2020/12/08 08:27:41;;;;;;;17.10;10.45;;;4.00;99.80;;;;;;4977470;28;20321;-88
2020/12/08 08:30:10;;;;;;;26.38;12.30;;;4.10;99.80;;;;;;4975134;28;20306;-88
2020/12/08 08:32:37;;;;;;;21.08;10.70;;;4.20;99.80;;;;;;4972545;28;20728;-88
2020/12/08 08:35:04;;;;;;;14.82;9.73;;;4.20;99.80;;;;;;5006588;28;20226;-87
2020/12/08 08:37:32;;;;;;;14.20;8.88;;;4.40;99.80;;;;;;4995575;28;20621;-88
2020/12/08 08:40:00;;;;;;;16.63;8.70;;;4.40;99.80;;;;;;5000216;28;20244;-87
2020/12/08 08:42:27;;;;;;;14.77;9.25;;;4.60;99.80;;;;;;5002794;28;20224;-87
2020/12/08 08:44:55;;;;;;;13.07;8.23;;;4.80;99.80;;;;;;5001030;28;20324;-88
2020/12/08 08:47:22;;;;;;;15.18;7.75;;;5.00;99.80;;;;;;4990903;28;20719;-87
2020/12/08 08:49:49;;;;;;;12.70;8.18;;;5.20;99.80;;;;;;5002797;28;20245;-88
2020/12/08 08:52:16;;;;;;;13.23;7.95;;;5.20;99.80;;;;;;4974897;28;20239;-87
2020/12/08 08:54:42;;;;;;;12.70;8.07;;;5.20;99.80;;;;;;4976531;28;20241;-87
2020/12/08 08:57:09;;;;;;;15.45;8.02;;;5.20;99.80;;;;;;4974015;28;20236;-88
2020/12/08 08:59:37;;;;;;;12.73;7.40;;;5.20;99.80;;;;;;4954493;28;20238;-87
2020/12/08 09:02:05;;;;;;;10.73;7.47;;;5.20;99.80;;;;;;4977746;28;20306;-87
2020/12/08 09:04:50;;;;;;;10.82;7.88;;;5.20;99.80;;;;;;5005347;28;20322;-87
2020/12/08 09:07:17;;;;;;;11.00;7.95;;;5.20;99.80;;;;;;5007002;28;20228;-88
2020/12/08 09:09:44;;;;;;;11.95;7.65;;;5.20;99.80;;;;;;4995799;28;20232;-88
2020/12/08 09:12:11;;;;;;;15.38;8.45;;;5.20;99.80;;;;;;5000875;28;20597;-87
2020/12/08 09:14:38;;;;;;;13.13;7.40;;;5.30;99.80;;;;;;4992143;28;20226;-87
2020/12/08 09:17:06;;;;;;;11.10;8.07;;;5.30;99.80;;;;;;4998220;28;20227;-87
2020/12/08 09:19:33;;;;;;;10.57;7.80;;;5.40;99.80;;;;;;5000033;28;20617;-88
2020/12/08 09:22:00;;;;;;;9.77;6.72;;;5.40;99.80;;;;;;4989496;28;20230;-87
2020/12/08 09:24:27;;;;;;;9.90;6.32;;;5.40;99.80;;;;;;4992249;28;20232;-87
2020/12/08 09:26:54;;;;;;;11.77;6.88;;;5.50;99.80;;;;;;4978975;28;20777;-87
2020/12/08 09:29:21;;;;;;;15.02;7.93;;;5.60;99.80;;;;;;4978253;28;20229;-88
2020/12/08 09:31:53;;;;;;;11.15;6.03;;;5.70;99.80;;;;;;4993213;28;20237;-87
2020/12/08 09:34:21;;;;;;;10.85;7.30;;;5.80;99.80;;;;;;5014453;28;20239;-88
2020/12/08 09:36:48;;;;;;;10.85;6.50;;;5.80;99.80;;;;;;4998056;28;20772;-88
2020/12/08 09:39:15;;;;;;;9.30;6.30;;;6.00;99.80;;;;;;5008340;28;20876;-87
2020/12/08 09:41:42;;;;;;;10.93;7.03;;;6.20;99.80;;;;;;5000177;28;20677;-87
2020/12/08 09:44:10;;;;;;;9.82;6.70;;;6.30;99.80;;;;;;5006708;28;20224;-87
2020/12/08 09:46:38;;;;;;;10.55;6.90;;;6.30;99.80;;;;;;5001970;28;20283;-88
2020/12/08 09:49:06;;;;;;;10.20;6.85;;;6.20;99.80;;;;;;5008420;28;20293;-87
2020/12/08 09:51:34;;;;;;;9.65;7.28;;;6.20;99.80;;;;;;5007900;28;20222;-87
2020/12/08 09:54:01;;;;;;;10.52;6.60;;;6.20;99.80;;;;;;4982854;28;20257;-87
2020/12/08 09:56:29;;;;;;;11.43;7.40;;;6.10;99.80;;;;;;4968753;28;20233;-88
2020/12/08 09:58:55;;;;;;;10.60;6.93;;;6.10;99.80;;;;;;4943790;28;20233;-88
2020/12/08 10:01:30;;;;;;;11.90;7.60;;;6.20;99.80;;;;;;4970842;28;20233;-87
2020/12/08 10:03:58;;;;;;;9.98;6.93;;;6.40;99.80;;;;;;4979242;28;20281;-88
2020/12/08 10:06:25;;;;;;;10.45;7.65;;;6.50;99.80;;;;;;4986349;28;20253;-88
2020/12/08 10:08:54;;;;;;;9.32;6.50;;;6.70;99.80;;;;;;4984543;28;20234;-88
2020/12/08 10:11:21;;;;;;;10.68;7.40;;;6.60;99.80;;;;;;4982882;28;20740;-87
2020/12/08 10:13:52;;;;;;;14.73;7.55;;;6.50;99.80;;;;;;4982917;28;20219;-87
2020/12/08 10:16:20;;;;;;;11.38;7.80;;;6.50;99.80;;;;;;4967720;28;20232;-87
2020/12/08 10:18:47;;;;;;;11.85;7.63;;;6.50;99.80;;;;;;4982782;28;20239;-88
2020/12/08 10:21:14;;;;;;;9.02;6.28;;;6.60;99.80;;;;;;4995980;28;20602;-87
2020/12/08 10:23:41;;;;;;;9.07;6.53;;;6.70;99.80;;;;;;5004984;28;20236;-87
2020/12/08 10:26:11;;;;;;;12.90;7.65;;;6.80;99.80;;;;;;4977442;28;20231;-88
2020/12/08 10:28:39;;;;;;;10.63;7.35;;;6.80;99.80;;;;;;4968067;28;20288;-87
2020/12/08 10:31:06;;;;;;;11.23;7.60;;;6.80;99.80;;;;;;4976733;28;20997;-87
2020/12/08 10:33:33;;;;;;;11.13;6.97;;;6.70;99.80;;;;;;4986169;28;20774;-87
2020/12/08 10:36:00;;;;;;;13.23;8.68;;;6.70;99.80;;;;;;4978625;28;20523;-87
2020/12/08 10:38:27;;;;;;;8.80;6.93;;;6.80;99.80;;;;;;4981516;28;20227;-87
2020/12/08 10:40:54;;;;;;;11.50;7.82;;;6.80;99.80;;;;;;4979958;28;20767;-87
2020/12/08 10:43:23;;;;;;;13.95;8.10;;;6.90;99.80;;;;;;4971420;28;20236;-88
2020/12/08 10:46:02;;;;;;;16.25;8.50;;;6.90;99.80;;;;;;4979719;28;20244;-87
2020/12/08 10:48:29;;;;;;;14.50;8.73;;;7.10;99.80;;;;;;5005945;28;20227;-88
2020/12/08 10:50:56;;;;;;;14.35;8.35;;;7.20;99.80;;;;;;5005320;28;20225;-88
2020/12/08 10:53:23;;;;;;;9.45;7.55;;;7.30;99.80;;;;;;5004417;28;20230;-87
2020/12/08 10:55:53;;;;;;;10.63;7.40;;;7.60;99.80;;;;;;5007690;28;20231;-87
2020/12/08 10:58:20;;;;;;;12.35;8.20;;;7.90;99.80;;;;;;5001135;28;20239;-88
2020/12/08 11:00:48;;;;;;;12.20;7.60;;;8.30;99.80;;;;;;5004174;28;20237;-87
2020/12/08 11:03:15;;;;;;;12.25;7.47;;;8.40;99.00;;;;;;4998769;28;20235;-88
2020/12/08 11:05:42;;;;;;;14.63;9.45;;;8.80;97.00;;;;;;5005676;28;20313;-88
2020/12/08 11:08:10;;;;;;;13.27;8.20;;;9.10;96.50;;;;;;4973958;28;20229;-88
2020/12/08 11:10:37;;;;;;;10.85;8.07;;;14.10;82.50;;;;;;4975233;28;20230;-88
2020/12/08 11:13:05;;;;;;;14.80;8.35;;;14.20;82.30;;;;;;4983405;28;20716;-87
2020/12/08 11:15:32;;;;;;;10.07;7.83;;;14.50;79.30;;;;;;4972192;28;20230;-87
2020/12/08 11:18:00;;;;;;;11.20;7.73;;;13.20;80.40;;;;;;4979866;28;20482;-87
2020/12/08 11:20:27;;;;;;;13.32;8.40;;;11.80;84.20;;;;;;5003159;28;20493;-87
2020/12/08 11:22:54;;;;;;;17.67;8.50;;;10.60;88.70;;;;;;5005879;28;20226;-87
2020/12/08 11:25:21;;;;;;;13.87;8.93;;;9.80;91.20;;;;;;5006680;28;20222;-87
2020/12/08 11:27:48;;;;;;;12.55;8.73;;;9.30;94.30;;;;;;4997841;28;20488;-87
2020/12/08 11:30:15;;;;;;;18.10;10.30;;;8.90;96.20;;;;;;4999631;28;20234;-88
2020/12/08 11:32:42;;;;;;;11.83;8.70;;;8.70;95.60;;;;;;5006266;28;20473;-88
2020/12/08 11:35:10;;;;;;;13.77;8.60;;;8.40;96.90;;;;;;5000588;28;20484;-88
2020/12/08 11:37:37;;;;;;;15.75;9.35;;;8.40;96.50;;;;;;4996444;28;20226;-88
2020/12/08 11:40:15;;;;;;;16.48;10.40;;;8.50;96.90;;;;;;4973418;28;20322;-88
2020/12/08 11:42:42;;;;;;;12.65;8.82;;;8.50;96.70;;;;;;4975600;28;20231;-88
2020/12/08 11:45:12;;;;;;;14.57;8.55;;;8.40;96.60;;;;;;4988228;28;20786;-87
2020/12/08 11:47:39;;;;;;;15.80;9.88;;;8.10;98.00;;;;;;4991521;28;20987;-87
2020/12/08 11:50:07;;;;;;;16.77;10.02;;;8.00;98.40;;;;;;4987414;28;20777;-88
2020/12/08 11:52:34;;;;;;;13.93;9.50;;;8.00;99.30;;;;;;4964744;28;21063;-87
2020/12/08 11:55:03;;;;;;;14.35;9.40;;;8.10;98.40;;;;;;4975963;28;20278;-87
2020/12/08 11:57:31;;;;;;;12.75;9.25;;;8.30;98.30;;;;;;4973739;28;20234;-88
2020/12/08 11:59:59;;;;;;;15.90;9.85;;;8.20;99.10;;;;;;4965238;28;20308;-88
2020/12/08 12:02:26;;;;;;;15.73;9.10;;;8.20;98.50;;;;;;4974537;28;20321;-87
2020/12/08 12:04:53;;;;;;;13.35;8.82;;;8.20;98.60;;;;;;5006846;28;20225;-88
2020/12/08 12:07:20;;;;;;;16.02;9.13;;;8.70;98.20;;;;;;5010499;28;20720;-87
2020/12/08 12:09:48;;;;;;;14.77;9.18;;;10.20;94.10;;;;;;4992170;28;20233;-88
2020/12/08 12:12:15;;;;;;;13.33;8.73;;;13.70;85.40;;;;;;4969349;28;20235;-88
2020/12/08 12:14:42;;;;;;;12.87;8.80;;;20.20;65.40;;;;;;4960288;28;20472;-88
2020/12/08 12:17:09;;;;;;;13.17;8.20;;;22.20;60.30;;;;;;4977993;28;20471;-89
2020/12/08 12:19:36;;;;;;;12.73;8.10;;;23.70;56.90;;;;;;5002830;28;20568;-88
2020/12/08 12:22:03;;;;;;;12.30;8.00;;;22.10;58.00;;;;;;4965218;28;20476;-88
2020/12/08 12:24:30;;;;;;;14.23;9.30;;;19.30;62.40;;;;;;4973895;28;20521;-88
2020/12/08 12:26:58;;;;;;;14.17;8.90;;;19.30;62.40;;;;;;4973167;28;20559;-88
2020/12/08 12:29:25;;;;;;;11.73;8.57;;;15.90;69.40;;;;;;4958874;28;20486;-87
2020/12/08 12:31:52;;;;;;;15.07;9.37;;;13.30;76.90;;;;;;4969354;28;20488;-88
2020/12/08 12:34:19;;;;;;;14.57;9.37;;;11.60;83.20;;;;;;4996132;28;20921;-88
2020/12/08 12:36:48;;;;;;;11.67;8.60;;;10.10;88.80;;;;;;4996361;28;20473;-88
2020/12/08 12:39:16;;;;;;;11.80;8.97;;;8.70;94.20;;;;;;4994002;28;20989;-88
2020/12/08 12:41:44;;;;;;;12.70;8.30;;;8.70;94.20;;;;;;4982967;28;20489;-88
2020/12/08 12:44:12;;;;;;;10.47;8.00;;;9.40;95.70;;;;;;4968609;28;20980;-88